sensor_id;sensor_type;location;lat;lon;timestamp;P1;durP1;ratioP1;P2;durP2;ratioP2
74658;SDS011;63186;51.204;6.536;2023-05-07T00:00:52;8.13;;;4.87;;
74658;SDS011;63186;51.204;6.536;2023-05-07T00:03:17;7.73;;;4.20;;
74658;SDS011;63186;51.204;6.536;2023-05-07T00:05:43;8.95;;;4.68;;
74658;SDS011;63186;51.204;6.536;2023-05-07T00:08:08;14.97;;;5.60;;
74658;SDS011;63186;51.204;6.536;2023-05-07T00:10:33;9.40;;;5.23;;
74658;SDS011;63186;51.204;6.536;2023-05-07T00:12:59;10.13;;;5.47;;
74658;SDS011;63186;51.204;6.536;2023-05-07T00:15:24;8.07;;;4.50;;
74658;SDS011;63186;51.204;6.536;2023-05-07T00:17:49;9.13;;;5.22;;
74658;SDS011;63186;51.204;6.536;2023-05-07T00:20:14;8.45;;;5.00;;
74658;SDS011;63186;51.204;6.536;2023-05-07T00:22:40;8.25;;;4.85;;
74658;SDS011;63186;51.204;6.536;2023-05-07T00:25:06;7.38;;;4.60;;
74658;SDS011;63186;51.204;6.536;2023-05-07T00:27:31;7.20;;;4.63;;
74658;SDS011;63186;51.204;6.536;2023-05-07T00:29:56;9.23;;;5.10;;
74658;SDS011;63186;51.204;6.536;2023-05-07T00:32:22;10.07;;;5.47;;
74658;SDS011;63186;51.204;6.536;2023-05-07T00:34:47;9.37;;;4.97;;
74658;SDS011;63186;51.204;6.536;2023-05-07T00:37:12;9.97;;;5.30;;
74658;SDS011;63186;51.204;6.536;2023-05-07T00:39:37;10.17;;;5.40;;
74658;SDS011;63186;51.204;6.536;2023-05-07T00:42:03;9.20;;;5.03;;
74658;SDS011;63186;51.204;6.536;2023-05-07T00:44:28;8.52;;;5.43;;
74658;SDS011;63186;51.204;6.536;2023-05-07T00:46:54;10.00;;;5.25;;
74658;SDS011;63186;51.204;6.536;2023-05-07T00:49:21;8.88;;;5.07;;
74658;SDS011;63186;51.204;6.536;2023-05-07T00:51:47;11.35;;;5.80;;
74658;SDS011;63186;51.204;6.536;2023-05-07T00:54:13;8.63;;;4.70;;
74658;SDS011;63186;51.204;6.536;2023-05-07T00:56:38;9.27;;;4.65;;
74658;SDS011;63186;51.204;6.536;2023-05-07T00:59:04;8.77;;;4.40;;
74658;SDS011;63186;51.204;6.536;2023-05-07T01:01:31;11.55;;;5.28;;
74658;SDS011;63186;51.204;6.536;2023-05-07T01:03:56;8.93;;;4.70;;
74658;SDS011;63186;51.204;6.536;2023-05-07T01:06:22;8.43;;;4.30;;
74658;SDS011;63186;51.204;6.536;2023-05-07T01:08:49;8.43;;;4.38;;
74658;SDS011;63186;51.204;6.536;2023-05-07T01:11:17;7.90;;;4.82;;
74658;SDS011;63186;51.204;6.536;2023-05-07T01:13:45;8.35;;;5.15;;
74658;SDS011;63186;51.204;6.536;2023-05-07T01:16:11;9.45;;;5.70;;
74658;SDS011;63186;51.204;6.536;2023-05-07T01:18:36;7.78;;;4.70;;
74658;SDS011;63186;51.204;6.536;2023-05-07T01:21:02;9.27;;;4.60;;
74658;SDS011;63186;51.204;6.536;2023-05-07T01:23:29;8.18;;;4.70;;
74658;SDS011;63186;51.204;6.536;2023-05-07T01:25:55;9.30;;;4.93;;
74658;SDS011;63186;51.204;6.536;2023-05-07T01:28:20;10.35;;;4.72;;
74658;SDS011;63186;51.204;6.536;2023-05-07T01:30:52;7.78;;;4.82;;
74658;SDS011;63186;51.204;6.536;2023-05-07T01:33:21;8.15;;;4.80;;
74658;SDS011;63186;51.204;6.536;2023-05-07T01:38:17;8.68;;;4.32;;
74658;SDS011;63186;51.204;6.536;2023-05-07T01:40:43;8.00;;;4.50;;
74658;SDS011;63186;51.204;6.536;2023-05-07T01:43:09;9.70;;;5.10;;
74658;SDS011;63186;51.204;6.536;2023-05-07T01:45:35;9.55;;;5.38;;
74658;SDS011;63186;51.204;6.536;2023-05-07T01:48:01;7.68;;;4.35;;
74658;SDS011;63186;51.204;6.536;2023-05-07T01:50:27;7.50;;;4.63;;
74658;SDS011;63186;51.204;6.536;2023-05-07T01:52:53;7.90;;;4.65;;
74658;SDS011;63186;51.204;6.536;2023-05-07T01:55:18;9.77;;;5.07;;
74658;SDS011;63186;51.204;6.536;2023-05-07T01:57:44;8.35;;;4.80;;
74658;SDS011;63186;51.204;6.536;2023-05-07T02:00:09;8.80;;;5.30;;
74658;SDS011;63186;51.204;6.536;2023-05-07T02:02:35;7.72;;;4.78;;
74658;SDS011;63186;51.204;6.536;2023-05-07T02:05:00;11.15;;;5.00;;
74658;SDS011;63186;51.204;6.536;2023-05-07T02:07:26;9.95;;;5.40;;
74658;SDS011;63186;51.204;6.536;2023-05-07T02:09:52;7.57;;;4.60;;
74658;SDS011;63186;51.204;6.536;2023-05-07T02:12:17;7.70;;;4.53;;
74658;SDS011;63186;51.204;6.536;2023-05-07T02:14:43;7.57;;;4.27;;
74658;SDS011;63186;51.204;6.536;2023-05-07T02:17:08;10.00;;;4.30;;
74658;SDS011;63186;51.204;6.536;2023-05-07T02:19:33;9.00;;;4.40;;
74658;SDS011;63186;51.204;6.536;2023-05-07T02:21:58;7.67;;;4.43;;
74658;SDS011;63186;51.204;6.536;2023-05-07T02:24:24;8.27;;;4.40;;
74658;SDS011;63186;51.204;6.536;2023-05-07T02:26:49;8.27;;;4.50;;
74658;SDS011;63186;51.204;6.536;2023-05-07T02:29:15;7.90;;;4.50;;
74658;SDS011;63186;51.204;6.536;2023-05-07T02:31:40;8.97;;;4.97;;
74658;SDS011;63186;51.204;6.536;2023-05-07T02:34:05;7.73;;;4.50;;
74658;SDS011;63186;51.204;6.536;2023-05-07T02:36:31;7.88;;;3.88;;
74658;SDS011;63186;51.204;6.536;2023-05-07T02:38:56;9.37;;;5.17;;
74658;SDS011;63186;51.204;6.536;2023-05-07T02:41:21;7.93;;;4.07;;
74658;SDS011;63186;51.204;6.536;2023-05-07T02:43:46;9.97;;;4.73;;
74658;SDS011;63186;51.204;6.536;2023-05-07T02:46:12;10.63;;;4.30;;
74658;SDS011;63186;51.204;6.536;2023-05-07T02:48:37;9.63;;;4.73;;
74658;SDS011;63186;51.204;6.536;2023-05-07T02:51:02;9.07;;;4.23;;
74658;SDS011;63186;51.204;6.536;2023-05-07T02:53:28;10.95;;;4.40;;
74658;SDS011;63186;51.204;6.536;2023-05-07T02:55:57;7.45;;;4.28;;
74658;SDS011;63186;51.204;6.536;2023-05-07T02:58:24;7.82;;;4.13;;
74658;SDS011;63186;51.204;6.536;2023-05-07T03:00:49;7.45;;;4.05;;
74658;SDS011;63186;51.204;6.536;2023-05-07T03:03:15;7.55;;;3.92;;
74658;SDS011;63186;51.204;6.536;2023-05-07T03:05:40;8.52;;;4.43;;
74658;SDS011;63186;51.204;6.536;2023-05-07T03:08:06;8.13;;;4.28;;
74658;SDS011;63186;51.204;6.536;2023-05-07T03:10:32;7.78;;;4.10;;
74658;SDS011;63186;51.204;6.536;2023-05-07T03:12:57;13.10;;;4.33;;
74658;SDS011;63186;51.204;6.536;2023-05-07T03:15:22;7.83;;;4.10;;
74658;SDS011;63186;51.204;6.536;2023-05-07T03:17:48;8.13;;;4.87;;
74658;SDS011;63186;51.204;6.536;2023-05-07T03:20:13;8.13;;;4.20;;
74658;SDS011;63186;51.204;6.536;2023-05-07T03:22:38;8.05;;;5.00;;
74658;SDS011;63186;51.204;6.536;2023-05-07T03:25:04;7.93;;;4.68;;
74658;SDS011;63186;51.204;6.536;2023-05-07T03:27:30;8.35;;;4.60;;
74658;SDS011;63186;51.204;6.536;2023-05-07T03:29:55;8.97;;;4.90;;
74658;SDS011;63186;51.204;6.536;2023-05-07T03:32:21;11.67;;;4.33;;
74658;SDS011;63186;51.204;6.536;2023-05-07T03:34:46;8.17;;;4.37;;
74658;SDS011;63186;51.204;6.536;2023-05-07T03:37:11;8.23;;;4.37;;
74658;SDS011;63186;51.204;6.536;2023-05-07T03:39:36;7.50;;;4.40;;
74658;SDS011;63186;51.204;6.536;2023-05-07T03:42:02;6.77;;;3.80;;
74658;SDS011;63186;51.204;6.536;2023-05-07T03:44:27;7.47;;;4.60;;
74658;SDS011;63186;51.204;6.536;2023-05-07T03:46:53;6.93;;;4.47;;
74658;SDS011;63186;51.204;6.536;2023-05-07T03:49:18;7.07;;;3.50;;
74658;SDS011;63186;51.204;6.536;2023-05-07T03:51:43;8.57;;;4.73;;
74658;SDS011;63186;51.204;6.536;2023-05-07T03:54:08;10.63;;;4.10;;
74658;SDS011;63186;51.204;6.536;2023-05-07T03:56:34;7.73;;;3.60;;
74658;SDS011;63186;51.204;6.536;2023-05-07T03:59:00;8.20;;;4.50;;
74658;SDS011;63186;51.204;6.536;2023-05-07T04:01:25;8.50;;;3.67;;
74658;SDS011;63186;51.204;6.536;2023-05-07T04:03:51;7.45;;;3.47;;
74658;SDS011;63186;51.204;6.536;2023-05-07T04:06:16;7.30;;;3.97;;
74658;SDS011;63186;51.204;6.536;2023-05-07T04:08:44;7.40;;;3.72;;
74658;SDS011;63186;51.204;6.536;2023-05-07T04:11:10;8.80;;;3.40;;
74658;SDS011;63186;51.204;6.536;2023-05-07T04:13:35;9.55;;;4.18;;
74658;SDS011;63186;51.204;6.536;2023-05-07T04:16:01;7.83;;;3.83;;
74658;SDS011;63186;51.204;6.536;2023-05-07T04:18:27;9.68;;;4.07;;
74658;SDS011;63186;51.204;6.536;2023-05-07T04:20:52;7.07;;;3.63;;
74658;SDS011;63186;51.204;6.536;2023-05-07T04:23:18;6.53;;;3.13;;
74658;SDS011;63186;51.204;6.536;2023-05-07T04:25:43;8.67;;;3.43;;
74658;SDS011;63186;51.204;6.536;2023-05-07T04:28:08;6.47;;;3.47;;
74658;SDS011;63186;51.204;6.536;2023-05-07T04:30:33;8.07;;;3.40;;
74658;SDS011;63186;51.204;6.536;2023-05-07T04:32:59;6.30;;;3.50;;
74658;SDS011;63186;51.204;6.536;2023-05-07T04:35:24;7.05;;;4.10;;
74658;SDS011;63186;51.204;6.536;2023-05-07T04:37:49;7.43;;;3.60;;
74658;SDS011;63186;51.204;6.536;2023-05-07T04:40:15;6.45;;;3.33;;
74658;SDS011;63186;51.204;6.536;2023-05-07T04:42:41;6.60;;;3.75;;
74658;SDS011;63186;51.204;6.536;2023-05-07T04:45:06;7.95;;;3.90;;
74658;SDS011;63186;51.204;6.536;2023-05-07T04:47:31;5.60;;;3.42;;
74658;SDS011;63186;51.204;6.536;2023-05-07T04:49:57;7.22;;;4.13;;
74658;SDS011;63186;51.204;6.536;2023-05-07T04:52:23;7.30;;;3.78;;
74658;SDS011;63186;51.204;6.536;2023-05-07T04:54:48;7.60;;;3.75;;
74658;SDS011;63186;51.204;6.536;2023-05-07T04:57:14;8.17;;;4.20;;
74658;SDS011;63186;51.204;6.536;2023-05-07T04:59:39;7.40;;;3.80;;
74658;SDS011;63186;51.204;6.536;2023-05-07T05:02:04;6.10;;;3.58;;
74658;SDS011;63186;51.204;6.536;2023-05-07T05:04:30;7.03;;;3.13;;
74658;SDS011;63186;51.204;6.536;2023-05-07T05:06:55;7.60;;;3.25;;
74658;SDS011;63186;51.204;6.536;2023-05-07T05:09:21;6.90;;;3.08;;
74658;SDS011;63186;51.204;6.536;2023-05-07T05:11:46;9.38;;;3.97;;
74658;SDS011;63186;51.204;6.536;2023-05-07T05:14:12;6.57;;;3.85;;
74658;SDS011;63186;51.204;6.536;2023-05-07T05:16:37;7.43;;;3.70;;
74658;SDS011;63186;51.204;6.536;2023-05-07T05:19:02;7.40;;;3.40;;
74658;SDS011;63186;51.204;6.536;2023-05-07T05:21:27;7.43;;;3.95;;
74658;SDS011;63186;51.204;6.536;2023-05-07T05:23:53;7.20;;;4.18;;
74658;SDS011;63186;51.204;6.536;2023-05-07T05:26:20;6.60;;;3.47;;
74658;SDS011;63186;51.204;6.536;2023-05-07T05:28:46;6.82;;;3.42;;
74658;SDS011;63186;51.204;6.536;2023-05-07T05:31:11;6.53;;;3.45;;
74658;SDS011;63186;51.204;6.536;2023-05-07T05:33:36;7.27;;;3.57;;
74658;SDS011;63186;51.204;6.536;2023-05-07T05:36:02;6.07;;;3.20;;
74658;SDS011;63186;51.204;6.536;2023-05-07T05:38:27;6.55;;;3.35;;
74658;SDS011;63186;51.204;6.536;2023-05-07T05:40:52;6.50;;;3.73;;
74658;SDS011;63186;51.204;6.536;2023-05-07T05:43:18;5.90;;;3.20;;
74658;SDS011;63186;51.204;6.536;2023-05-07T05:45:43;8.03;;;3.30;;
74658;SDS011;63186;51.204;6.536;2023-05-07T05:48:08;5.10;;;2.57;;
74658;SDS011;63186;51.204;6.536;2023-05-07T05:50:34;5.77;;;2.97;;
74658;SDS011;63186;51.204;6.536;2023-05-07T05:53:01;5.50;;;2.42;;
74658;SDS011;63186;51.204;6.536;2023-05-07T05:55:26;4.60;;;2.50;;
74658;SDS011;63186;51.204;6.536;2023-05-07T05:57:52;4.78;;;2.40;;
74658;SDS011;63186;51.204;6.536;2023-05-07T06:00:17;6.30;;;2.90;;
74658;SDS011;63186;51.204;6.536;2023-05-07T06:02:42;5.50;;;2.47;;
74658;SDS011;63186;51.204;6.536;2023-05-07T06:05:08;5.55;;;2.60;;
74658;SDS011;63186;51.204;6.536;2023-05-07T06:07:34;5.13;;;2.75;;
74658;SDS011;63186;51.204;6.536;2023-05-07T06:10:00;5.07;;;2.40;;
74658;SDS011;63186;51.204;6.536;2023-05-07T06:12:25;5.28;;;2.55;;
74658;SDS011;63186;51.204;6.536;2023-05-07T06:14:51;3.70;;;2.17;;
74658;SDS011;63186;51.204;6.536;2023-05-07T06:17:17;4.00;;;2.20;;
74658;SDS011;63186;51.204;6.536;2023-05-07T06:19:42;6.40;;;2.53;;
74658;SDS011;63186;51.204;6.536;2023-05-07T06:22:07;5.30;;;2.70;;
74658;SDS011;63186;51.204;6.536;2023-05-07T06:24:32;5.57;;;2.53;;
74658;SDS011;63186;51.204;6.536;2023-05-07T06:26:58;4.07;;;2.23;;
74658;SDS011;63186;51.204;6.536;2023-05-07T06:29:23;5.07;;;2.63;;
74658;SDS011;63186;51.204;6.536;2023-05-07T06:31:50;6.15;;;2.35;;
74658;SDS011;63186;51.204;6.536;2023-05-07T06:34:17;5.63;;;2.42;;
74658;SDS011;63186;51.204;6.536;2023-05-07T06:36:42;4.73;;;2.27;;
74658;SDS011;63186;51.204;6.536;2023-05-07T06:39:07;5.57;;;2.57;;
74658;SDS011;63186;51.204;6.536;2023-05-07T06:41:33;4.27;;;2.20;;
74658;SDS011;63186;51.204;6.536;2023-05-07T06:43:59;6.35;;;3.00;;
74658;SDS011;63186;51.204;6.536;2023-05-07T06:46:24;5.47;;;2.63;;
74658;SDS011;63186;51.204;6.536;2023-05-07T06:48:49;5.57;;;2.40;;
74658;SDS011;63186;51.204;6.536;2023-05-07T06:51:15;4.90;;;2.40;;
74658;SDS011;63186;51.204;6.536;2023-05-07T06:53:40;5.40;;;2.50;;
74658;SDS011;63186;51.204;6.536;2023-05-07T06:56:05;4.90;;;2.00;;
74658;SDS011;63186;51.204;6.536;2023-05-07T06:58:31;4.55;;;2.10;;
74658;SDS011;63186;51.204;6.536;2023-05-07T07:00:56;4.15;;;2.03;;
74658;SDS011;63186;51.204;6.536;2023-05-07T07:03:21;4.43;;;1.97;;
74658;SDS011;63186;51.204;6.536;2023-05-07T07:05:47;5.23;;;2.30;;
74658;SDS011;63186;51.204;6.536;2023-05-07T07:08:12;4.97;;;2.30;;
74658;SDS011;63186;51.204;6.536;2023-05-07T07:10:37;4.50;;;2.23;;
74658;SDS011;63186;51.204;6.536;2023-05-07T07:13:03;4.03;;;2.10;;
74658;SDS011;63186;51.204;6.536;2023-05-07T07:15:28;4.88;;;2.88;;
74658;SDS011;63186;51.204;6.536;2023-05-07T07:17:53;4.80;;;2.40;;
74658;SDS011;63186;51.204;6.536;2023-05-07T07:20:18;6.10;;;2.30;;
74658;SDS011;63186;51.204;6.536;2023-05-07T07:22:44;5.97;;;2.03;;
74658;SDS011;63186;51.204;6.536;2023-05-07T07:25:09;5.18;;;2.30;;
74658;SDS011;63186;51.204;6.536;2023-05-07T07:27:36;5.47;;;2.88;;
74658;SDS011;63186;51.204;6.536;2023-05-07T07:30:01;5.90;;;2.78;;
74658;SDS011;63186;51.204;6.536;2023-05-07T07:32:26;5.38;;;2.60;;
74658;SDS011;63186;51.204;6.536;2023-05-07T07:34:52;6.13;;;2.70;;
74658;SDS011;63186;51.204;6.536;2023-05-07T07:37:17;6.00;;;2.57;;
74658;SDS011;63186;51.204;6.536;2023-05-07T07:39:42;4.27;;;2.20;;
74658;SDS011;63186;51.204;6.536;2023-05-07T07:42:07;5.18;;;2.50;;
74658;SDS011;63186;51.204;6.536;2023-05-07T07:44:33;5.27;;;2.20;;
74658;SDS011;63186;51.204;6.536;2023-05-07T07:46:58;5.40;;;2.40;;
74658;SDS011;63186;51.204;6.536;2023-05-07T07:49:23;5.37;;;2.70;;
74658;SDS011;63186;51.204;6.536;2023-05-07T07:51:49;3.90;;;2.40;;
74658;SDS011;63186;51.204;6.536;2023-05-07T07:54:14;4.20;;;2.03;;
74658;SDS011;63186;51.204;6.536;2023-05-07T07:56:39;6.00;;;2.50;;
74658;SDS011;63186;51.204;6.536;2023-05-07T07:59:05;5.53;;;2.10;;
74658;SDS011;63186;51.204;6.536;2023-05-07T08:01:30;6.23;;;2.50;;
74658;SDS011;63186;51.204;6.536;2023-05-07T08:03:55;5.18;;;2.30;;
74658;SDS011;63186;51.204;6.536;2023-05-07T08:06:23;5.47;;;2.55;;
74658;SDS011;63186;51.204;6.536;2023-05-07T08:08:48;5.20;;;2.53;;
74658;SDS011;63186;51.204;6.536;2023-05-07T08:11:14;5.77;;;2.37;;
74658;SDS011;63186;51.204;6.536;2023-05-07T08:13:39;3.90;;;2.20;;
74658;SDS011;63186;51.204;6.536;2023-05-07T08:16:04;6.13;;;2.30;;
74658;SDS011;63186;51.204;6.536;2023-05-07T08:18:30;4.80;;;2.25;;
74658;SDS011;63186;51.204;6.536;2023-05-07T08:20:55;4.68;;;2.30;;
74658;SDS011;63186;51.204;6.536;2023-05-07T08:23:21;5.57;;;2.27;;
74658;SDS011;63186;51.204;6.536;2023-05-07T08:25:46;4.35;;;2.28;;
74658;SDS011;63186;51.204;6.536;2023-05-07T08:28:12;5.65;;;2.60;;
74658;SDS011;63186;51.204;6.536;2023-05-07T08:30:37;5.20;;;2.00;;
74658;SDS011;63186;51.204;6.536;2023-05-07T08:33:02;4.97;;;2.30;;
74658;SDS011;63186;51.204;6.536;2023-05-07T08:35:28;4.47;;;2.20;;
74658;SDS011;63186;51.204;6.536;2023-05-07T08:37:53;5.23;;;2.27;;
74658;SDS011;63186;51.204;6.536;2023-05-07T08:40:19;4.20;;;2.00;;
74658;SDS011;63186;51.204;6.536;2023-05-07T08:42:48;5.53;;;2.60;;
74658;SDS011;63186;51.204;6.536;2023-05-07T08:45:15;5.05;;;2.13;;
74658;SDS011;63186;51.204;6.536;2023-05-07T08:47:44;3.97;;;1.80;;
74658;SDS011;63186;51.204;6.536;2023-05-07T08:50:15;3.65;;;1.98;;
74658;SDS011;63186;51.204;6.536;2023-05-07T08:52:41;3.80;;;1.92;;
74658;SDS011;63186;51.204;6.536;2023-05-07T08:55:07;4.10;;;1.90;;
74658;SDS011;63186;51.204;6.536;2023-05-07T08:57:33;5.07;;;1.95;;
74658;SDS011;63186;51.204;6.536;2023-05-07T08:59:58;3.40;;;1.80;;
74658;SDS011;63186;51.204;6.536;2023-05-07T09:02:23;4.30;;;1.70;;
74658;SDS011;63186;51.204;6.536;2023-05-07T09:04:49;3.67;;;1.70;;
74658;SDS011;63186;51.204;6.536;2023-05-07T09:07:14;5.78;;;2.20;;
74658;SDS011;63186;51.204;6.536;2023-05-07T09:09:40;2.88;;;1.55;;
74658;SDS011;63186;51.204;6.536;2023-05-07T09:12:05;3.92;;;1.60;;
74658;SDS011;63186;51.204;6.536;2023-05-07T09:14:31;2.95;;;1.50;;
74658;SDS011;63186;51.204;6.536;2023-05-07T09:16:56;2.53;;;1.70;;
74658;SDS011;63186;51.204;6.536;2023-05-07T09:19:25;4.40;;;1.83;;
74658;SDS011;63186;51.204;6.536;2023-05-07T09:22:00;4.43;;;2.15;;
74658;SDS011;63186;51.204;6.536;2023-05-07T09:24:27;4.57;;;2.05;;
74658;SDS011;63186;51.204;6.536;2023-05-07T09:26:57;3.33;;;1.58;;
74658;SDS011;63186;51.204;6.536;2023-05-07T09:29:23;4.07;;;2.03;;
74658;SDS011;63186;51.204;6.536;2023-05-07T09:31:48;4.75;;;2.00;;
74658;SDS011;63186;51.204;6.536;2023-05-07T09:34:13;3.33;;;1.70;;
74658;SDS011;63186;51.204;6.536;2023-05-07T09:36:38;4.87;;;2.00;;
74658;SDS011;63186;51.204;6.536;2023-05-07T09:39:04;5.53;;;2.10;;
74658;SDS011;63186;51.204;6.536;2023-05-07T09:41:30;4.00;;;1.95;;
74658;SDS011;63186;51.204;6.536;2023-05-07T09:43:57;5.43;;;1.77;;
74658;SDS011;63186;51.204;6.536;2023-05-07T09:46:29;4.15;;;1.67;;
74658;SDS011;63186;51.204;6.536;2023-05-07T09:48:56;4.57;;;1.90;;
74658;SDS011;63186;51.204;6.536;2023-05-07T09:53:57;5.25;;;2.10;;
74658;SDS011;63186;51.204;6.536;2023-05-07T09:56:25;4.93;;;1.83;;
74658;SDS011;63186;51.204;6.536;2023-05-07T09:58:52;4.18;;;2.00;;
74658;SDS011;63186;51.204;6.536;2023-05-07T10:01:20;4.50;;;2.40;;
74658;SDS011;63186;51.204;6.536;2023-05-07T10:03:47;6.55;;;2.50;;
74658;SDS011;63186;51.204;6.536;2023-05-07T10:08:40;5.40;;;2.27;;
74658;SDS011;63186;51.204;6.536;2023-05-07T10:11:07;4.55;;;2.15;;
74658;SDS011;63186;51.204;6.536;2023-05-07T10:13:34;6.28;;;2.25;;
74658;SDS011;63186;51.204;6.536;2023-05-07T10:16:05;5.28;;;2.28;;
74658;SDS011;63186;51.204;6.536;2023-05-07T10:18:31;4.38;;;2.15;;
74658;SDS011;63186;51.204;6.536;2023-05-07T10:23:28;5.35;;;2.30;;
74658;SDS011;63186;51.204;6.536;2023-05-07T10:25:56;5.20;;;2.20;;
74658;SDS011;63186;51.204;6.536;2023-05-07T10:28:23;3.55;;;1.92;;
74658;SDS011;63186;51.204;6.536;2023-05-07T10:33:41;2.85;;;1.50;;
74658;SDS011;63186;51.204;6.536;2023-05-07T10:36:08;3.17;;;1.30;;
74658;SDS011;63186;51.204;6.536;2023-05-07T10:38:34;1.90;;;1.20;;
74658;SDS011;63186;51.204;6.536;2023-05-07T10:40:59;4.28;;;1.30;;
74658;SDS011;63186;51.204;6.536;2023-05-07T10:43:25;2.63;;;1.30;;
74658;SDS011;63186;51.204;6.536;2023-05-07T10:46:09;2.60;;;1.10;;
74658;SDS011;63186;51.204;6.536;2023-05-07T10:51:29;3.47;;;1.40;;
74658;SDS011;63186;51.204;6.536;2023-05-07T10:56:51;3.05;;;1.40;;
74658;SDS011;63186;51.204;6.536;2023-05-07T11:04:20;4.05;;;1.45;;
74658;SDS011;63186;51.204;6.536;2023-05-07T11:13:00;2.97;;;1.60;;
74658;SDS011;63186;51.204;6.536;2023-05-07T11:15:08;2.88;;;1.70;;
74658;SDS011;63186;51.204;6.536;2023-05-07T11:17:34;3.75;;;1.77;;
74658;SDS011;63186;51.204;6.536;2023-05-07T11:20:17;2.22;;;1.15;;
74658;SDS011;63186;51.204;6.536;2023-05-07T11:22:42;1.80;;;1.20;;
74658;SDS011;63186;51.204;6.536;2023-05-07T11:25:08;2.37;;;1.40;;
74658;SDS011;63186;51.204;6.536;2023-05-07T11:27:33;3.50;;;1.20;;
74658;SDS011;63186;51.204;6.536;2023-05-07T11:29:59;2.53;;;1.40;;
74658;SDS011;63186;51.204;6.536;2023-05-07T11:32:26;1.27;;;1.00;;
74658;SDS011;63186;51.204;6.536;2023-05-07T11:34:56;2.53;;;1.30;;
74658;SDS011;63186;51.204;6.536;2023-05-07T11:37:23;4.07;;;1.45;;
74658;SDS011;63186;51.204;6.536;2023-05-07T11:39:50;4.15;;;1.30;;
74658;SDS011;63186;51.204;6.536;2023-05-07T11:44:59;2.72;;;1.40;;
74658;SDS011;63186;51.204;6.536;2023-05-07T11:47:25;3.20;;;1.30;;
74658;SDS011;63186;51.204;6.536;2023-05-07T11:49:51;4.13;;;1.55;;
74658;SDS011;63186;51.204;6.536;2023-05-07T11:52:18;3.47;;;1.30;;
74658;SDS011;63186;51.204;6.536;2023-05-07T11:54:51;3.22;;;1.50;;
74658;SDS011;63186;51.204;6.536;2023-05-07T11:57:23;2.38;;;1.38;;
74658;SDS011;63186;51.204;6.536;2023-05-07T11:59:58;3.83;;;1.60;;
74658;SDS011;63186;51.204;6.536;2023-05-07T12:02:27;3.78;;;1.67;;
74658;SDS011;63186;51.204;6.536;2023-05-07T12:04:53;3.13;;;1.58;;
74658;SDS011;63186;51.204;6.536;2023-05-07T12:07:19;6.25;;;1.73;;
74658;SDS011;63186;51.204;6.536;2023-05-07T12:09:45;3.78;;;1.40;;
74658;SDS011;63186;51.204;6.536;2023-05-07T12:12:11;4.55;;;1.63;;
74658;SDS011;63186;51.204;6.536;2023-05-07T12:14:38;3.70;;;1.63;;
74658;SDS011;63186;51.204;6.536;2023-05-07T12:17:05;2.85;;;1.52;;
74658;SDS011;63186;51.204;6.536;2023-05-07T12:19:31;4.50;;;1.90;;
74658;SDS011;63186;51.204;6.536;2023-05-07T12:21:56;5.15;;;2.13;;
74658;SDS011;63186;51.204;6.536;2023-05-07T12:24:22;4.43;;;2.00;;
74658;SDS011;63186;51.204;6.536;2023-05-07T12:26:48;3.63;;;1.80;;
74658;SDS011;63186;51.204;6.536;2023-05-07T12:29:13;2.85;;;1.70;;
74658;SDS011;63186;51.204;6.536;2023-05-07T12:31:41;3.67;;;1.75;;
74658;SDS011;63186;51.204;6.536;2023-05-07T12:34:07;6.57;;;2.80;;
74658;SDS011;63186;51.204;6.536;2023-05-07T12:36:39;5.38;;;2.05;;
74658;SDS011;63186;51.204;6.536;2023-05-07T12:39:06;5.00;;;1.88;;
74658;SDS011;63186;51.204;6.536;2023-05-07T12:41:35;4.55;;;2.20;;
74658;SDS011;63186;51.204;6.536;2023-05-07T12:44:16;4.57;;;1.88;;
74658;SDS011;63186;51.204;6.536;2023-05-07T12:46:41;2.87;;;1.67;;
74658;SDS011;63186;51.204;6.536;2023-05-07T12:49:07;4.13;;;2.20;;
74658;SDS011;63186;51.204;6.536;2023-05-07T12:51:34;3.77;;;1.77;;
74658;SDS011;63186;51.204;6.536;2023-05-07T12:54:00;3.15;;;1.65;;
74658;SDS011;63186;51.204;6.536;2023-05-07T12:56:25;5.10;;;1.90;;
74658;SDS011;63186;51.204;6.536;2023-05-07T12:58:50;4.90;;;1.70;;
74658;SDS011;63186;51.204;6.536;2023-05-07T13:01:16;2.97;;;1.50;;
74658;SDS011;63186;51.204;6.536;2023-05-07T13:03:47;4.07;;;1.85;;
74658;SDS011;63186;51.204;6.536;2023-05-07T13:06:13;4.90;;;1.98;;
74658;SDS011;63186;51.204;6.536;2023-05-07T13:08:39;5.07;;;1.70;;
74658;SDS011;63186;51.204;6.536;2023-05-07T13:11:07;4.15;;;1.63;;
74658;SDS011;63186;51.204;6.536;2023-05-07T13:13:34;4.55;;;1.40;;
74658;SDS011;63186;51.204;6.536;2023-05-07T13:16:04;3.55;;;1.52;;
74658;SDS011;63186;51.204;6.536;2023-05-07T13:18:31;3.60;;;1.40;;
74658;SDS011;63186;51.204;6.536;2023-05-07T13:20:57;4.05;;;1.50;;
74658;SDS011;63186;51.204;6.536;2023-05-07T13:23:23;3.33;;;1.55;;
74658;SDS011;63186;51.204;6.536;2023-05-07T13:25:49;3.30;;;1.30;;
74658;SDS011;63186;51.204;6.536;2023-05-07T13:28:15;2.40;;;1.40;;
74658;SDS011;63186;51.204;6.536;2023-05-07T13:30:41;2.47;;;1.30;;
74658;SDS011;63186;51.204;6.536;2023-05-07T13:33:06;2.95;;;1.50;;
74658;SDS011;63186;51.204;6.536;2023-05-07T13:35:32;1.98;;;1.30;;
74658;SDS011;63186;51.204;6.536;2023-05-07T13:37:58;2.17;;;1.30;;
74658;SDS011;63186;51.204;6.536;2023-05-07T13:40:23;3.30;;;1.20;;
74658;SDS011;63186;51.204;6.536;2023-05-07T13:42:49;3.65;;;1.65;;
74658;SDS011;63186;51.204;6.536;2023-05-07T13:45:15;2.95;;;1.40;;
74658;SDS011;63186;51.204;6.536;2023-05-07T13:47:41;3.47;;;1.48;;
74658;SDS011;63186;51.204;6.536;2023-05-07T13:50:07;3.13;;;1.50;;
74658;SDS011;63186;51.204;6.536;2023-05-07T13:52:33;1.92;;;1.30;;
74658;SDS011;63186;51.204;6.536;2023-05-07T13:54:59;2.27;;;1.30;;
74658;SDS011;63186;51.204;6.536;2023-05-07T13:57:24;2.70;;;1.43;;
74658;SDS011;63186;51.204;6.536;2023-05-07T13:59:49;3.17;;;1.55;;
74658;SDS011;63186;51.204;6.536;2023-05-07T14:02:15;2.63;;;1.48;;
74658;SDS011;63186;51.204;6.536;2023-05-07T14:04:40;3.45;;;1.48;;
74658;SDS011;63186;51.204;6.536;2023-05-07T14:07:06;4.15;;;1.30;;
74658;SDS011;63186;51.204;6.536;2023-05-07T14:09:31;3.17;;;1.50;;
74658;SDS011;63186;51.204;6.536;2023-05-07T14:11:56;2.93;;;1.50;;
74658;SDS011;63186;51.204;6.536;2023-05-07T14:14:21;2.63;;;1.30;;
74658;SDS011;63186;51.204;6.536;2023-05-07T14:16:47;3.17;;;1.40;;
74658;SDS011;63186;51.204;6.536;2023-05-07T14:19:12;3.47;;;1.60;;
74658;SDS011;63186;51.204;6.536;2023-05-07T14:21:38;3.45;;;1.50;;
74658;SDS011;63186;51.204;6.536;2023-05-07T14:24:03;3.78;;;1.70;;
74658;SDS011;63186;51.204;6.536;2023-05-07T14:26:31;4.10;;;1.88;;
74658;SDS011;63186;51.204;6.536;2023-05-07T14:28:56;6.50;;;1.80;;
74658;SDS011;63186;51.204;6.536;2023-05-07T14:31:23;6.93;;;2.00;;
74658;SDS011;63186;51.204;6.536;2023-05-07T14:33:48;5.20;;;2.25;;
74658;SDS011;63186;51.204;6.536;2023-05-07T14:36:15;4.18;;;1.85;;
74658;SDS011;63186;51.204;6.536;2023-05-07T14:38:41;5.55;;;2.30;;
74658;SDS011;63186;51.204;6.536;2023-05-07T14:41:06;6.37;;;2.47;;
74658;SDS011;63186;51.204;6.536;2023-05-07T14:43:31;7.20;;;2.63;;
74658;SDS011;63186;51.204;6.536;2023-05-07T14:45:57;7.23;;;2.67;;
74658;SDS011;63186;51.204;6.536;2023-05-07T14:48:22;7.17;;;2.47;;
74658;SDS011;63186;51.204;6.536;2023-05-07T14:50:47;7.90;;;3.33;;
74658;SDS011;63186;51.204;6.536;2023-05-07T14:53:13;9.20;;;4.15;;
74658;SDS011;63186;51.204;6.536;2023-05-07T14:55:38;8.77;;;4.25;;
74658;SDS011;63186;51.204;6.536;2023-05-07T14:58:04;9.23;;;4.38;;
74658;SDS011;63186;51.204;6.536;2023-05-07T15:00:29;7.57;;;3.47;;
74658;SDS011;63186;51.204;6.536;2023-05-07T15:02:56;7.43;;;4.03;;
74658;SDS011;63186;51.204;6.536;2023-05-07T15:05:30;8.85;;;4.30;;
74658;SDS011;63186;51.204;6.536;2023-05-07T15:07:55;10.00;;;4.23;;
74658;SDS011;63186;51.204;6.536;2023-05-07T15:10:20;10.13;;;4.13;;
74658;SDS011;63186;51.204;6.536;2023-05-07T15:12:46;9.23;;;4.40;;